Search METAR Data

METAR Data for ENBS:

ENBS 241550Z 26003KT 210V300 CAVOK 02/01 Q1015